createdAt,value
2022-08-14T00:58:44.911Z,97701.38
2022-08-14T01:03:52.612Z,97703.50
2022-08-14T01:08:59.065Z,97703.69
2022-08-14T01:14:04.990Z,97703.38
2022-08-14T01:19:41.243Z,97703.28
2022-08-14T01:24:43.909Z,97699.13
2022-08-14T01:30:01.275Z,97697.63
2022-08-14T01:35:17.701Z,97698.63
2022-08-14T01:40:36.766Z,97707.03
2022-08-14T01:45:49.179Z,97701.94
2022-08-14T01:51:19.247Z,97699.28
2022-08-14T01:56:23.654Z,97706.41
2022-08-14T02:01:26.519Z,97699.44
2022-08-14T02:06:33.135Z,97703.56
2022-08-14T02:11:37.061Z,97689.75
2022-08-14T02:16:40.312Z,97691.38
2022-08-14T02:21:47.049Z,97678.91
2022-08-14T02:26:58.273Z,97681.03
2022-08-14T02:32:30.076Z,97665.75
2022-08-14T02:37:45.713Z,97671.94
2022-08-14T02:42:54.241Z,97667.25
2022-08-14T02:47:57.581Z,97653.47
2022-08-14T02:53:07.550Z,97662.19
2022-08-14T02:58:11.454Z,97655.38
2022-08-14T03:03:31.718Z,97663.50
2022-08-14T03:08:37.923Z,97658.47
2022-08-14T03:13:41.998Z,97649.03
2022-08-14T03:18:45.727Z,97662.69
2022-08-14T03:23:50.231Z,97655.53
2022-08-14T03:28:52.642Z,97659.72
2022-08-14T03:33:54.591Z,97653.28
2022-08-14T03:39:10.752Z,97649.84
2022-08-14T03:45:33.351Z,97647.44
2022-08-14T03:49:46.060Z,97646.38
2022-08-14T03:54:52.932Z,97645.47
2022-08-14T03:59:54.688Z,97639.59
2022-08-14T04:04:57.377Z,97634.53
2022-08-14T04:10:17.245Z,97646.81
2022-08-14T04:15:23.599Z,97645.66
2022-08-14T04:20:26.866Z,97645.00
2022-08-14T04:25:28.835Z,97646.59
2022-08-14T04:30:42.291Z,97647.41
2022-08-14T04:35:56.207Z,97651.00
2022-08-14T04:41:18.000Z,97653.28
2022-08-14T04:46:55.856Z,97647.25
2022-08-14T04:51:55.442Z,97638.53
2022-08-14T04:56:58.608Z,97627.81
2022-08-14T05:02:01.584Z,97629.38
2022-08-14T05:07:05.294Z,97627.03
2022-08-14T05:12:54.920Z,97626.91
2022-08-14T05:17:43.679Z,97615.69
2022-08-14T05:22:45.926Z,97607.19
2022-08-14T05:27:47.407Z,97602.19
2022-08-14T05:32:48.797Z,97608.84
2022-08-14T05:37:50.210Z,97601.91
2022-08-14T05:42:52.812Z,97607.25
2022-08-14T05:47:55.195Z,97606.00
2022-08-14T05:52:58.677Z,97595.53
2022-08-14T05:58:02.543Z,97599.69
2022-08-14T06:03:08.951Z,97600.88
2022-08-14T06:08:21.676Z,97597.66
2022-08-14T06:13:44.516Z,97598.19
2022-08-14T06:18:52.929Z,97590.63
2022-08-14T06:23:56.848Z,97592.31
2022-08-14T06:29:02.006Z,97577.75
2022-08-14T06:35:03.030Z,97588.16
2022-08-14T06:39:36.997Z,97583.88
2022-08-14T06:44:40.178Z,97577.38
2022-08-14T06:49:48.496Z,97573.06
2022-08-14T06:54:58.628Z,97571.16
2022-08-14T07:00:00.902Z,97557.59
2022-08-14T07:05:22.863Z,97567.97
2022-08-14T07:10:25.522Z,97553.53
2022-08-14T07:15:27.001Z,97555.41
2022-08-14T07:20:32.096Z,97551.06
2022-08-14T07:25:33.736Z,97549.13
2022-08-14T07:30:35.406Z,97544.16
2022-08-14T07:35:57.826Z,97540.84
2022-08-14T07:40:59.653Z,97534.50
2022-08-14T07:46:01.118Z,97530.88
2022-08-14T07:51:10.776Z,97522.09
2022-08-14T07:56:21.705Z,97528.25
2022-08-14T08:01:34.333Z,97518.59
2022-08-14T08:06:35.778Z,97516.31
2022-08-14T08:11:37.766Z,97529.88
2022-08-14T08:16:39.974Z,97531.16
2022-08-14T08:21:43.818Z,97528.63
2022-08-14T08:26:46.450Z,97532.94
2022-08-14T08:31:52.033Z,97531.81
2022-08-14T08:36:53.690Z,97532.94
2022-08-14T08:41:58.270Z,97529.56
2022-08-14T08:47:03.620Z,97520.16
2022-08-14T08:52:05.180Z,97520.59
2022-08-14T08:57:16.443Z,97521.00
2022-08-14T09:02:26.163Z,97508.69
2022-08-14T09:07:28.995Z,97507.25
2022-08-14T09:12:34.011Z,97510.41
2022-08-14T09:17:36.301Z,97510.28
2022-08-14T09:22:47.264Z,97500.00
2022-08-14T09:27:49.946Z,97497.97
2022-08-14T09:33:11.214Z,97484.16
2022-08-14T09:38:26.084Z,97479.34
2022-08-14T09:43:55.261Z,97470.44
2022-08-14T09:48:58.649Z,97470.38
2022-08-14T09:54:19.584Z,97461.19
2022-08-14T09:59:25.023Z,97444.97
2022-08-14T10:04:35.610Z,97439.88
2022-08-14T10:09:59.861Z,97434.91
2022-08-14T10:15:13.642Z,97430.53
2022-08-14T10:20:40.307Z,97425.16
2022-08-14T10:25:44.412Z,97415.91
2022-08-14T10:30:53.493Z,97406.94
2022-08-14T10:35:55.135Z,97396.84
2022-08-14T10:41:09.928Z,97393.78
2022-08-14T10:47:36.878Z,97382.09
2022-08-14T10:51:35.235Z,97372.69
2022-08-14T10:56:37.824Z,97368.94
2022-08-14T11:01:41.295Z,97360.50
2022-08-14T11:06:51.550Z,97365.78
2022-08-14T11:11:56.653Z,97354.00
2022-08-14T11:17:21.846Z,97360.59
2022-08-14T11:22:55.552Z,97356.97
2022-08-14T11:27:49.369Z,97353.47
2022-08-14T11:32:52.208Z,97364.47
2022-08-14T11:37:54.538Z,97355.91
2022-08-14T11:42:59.303Z,97347.34
2022-08-14T11:48:13.141Z,97339.31
2022-08-14T11:53:28.524Z,97323.34
2022-08-14T11:58:34.067Z,97336.75
2022-08-14T12:03:52.441Z,97334.34
2022-08-14T12:09:00.265Z,97334.72
2022-08-14T12:14:07.161Z,97333.09
2022-08-14T12:19:15.580Z,97324.53
2022-08-14T12:24:36.657Z,97326.72
2022-08-14T12:29:41.486Z,97312.63
2022-08-14T12:34:44.958Z,97309.56
2022-08-14T12:39:46.786Z,97318.09
2022-08-14T12:44:48.665Z,97318.38
2022-08-14T12:49:52.803Z,97307.25
2022-08-14T12:55:01.542Z,97303.06
2022-08-14T13:00:23.219Z,97296.94
2022-08-14T13:05:27.463Z,97299.69
2022-08-14T13:10:51.330Z,97288.38
2022-08-14T13:15:57.268Z,97275.91
2022-08-14T13:21:02.021Z,97262.50
2022-08-14T13:26:03.711Z,97259.59
2022-08-14T13:31:09.065Z,97259.59
2022-08-14T13:36:23.755Z,97235.94
2022-08-14T13:41:31.491Z,97235.44
2022-08-14T13:46:36.106Z,97227.34
2022-08-14T13:51:47.234Z,97218.47
2022-08-14T13:56:51.029Z,97213.94
2022-08-14T14:01:52.852Z,97206.97
2022-08-14T14:07:01.578Z,97202.44
2022-08-14T14:12:04.207Z,97198.88
2022-08-14T14:17:07.009Z,97194.66
2022-08-14T14:22:09.679Z,97187.88
2022-08-14T14:27:39.316Z,97181.41
2022-08-14T14:32:52.453Z,97172.66
2022-08-14T14:37:54.868Z,97164.84
2022-08-14T14:42:59.633Z,97149.25
2022-08-14T14:48:01.921Z,97154.41
2022-08-14T14:53:12.841Z,97145.50
2022-08-14T14:58:16.262Z,97145.81
2022-08-14T15:03:22.103Z,97143.94
2022-08-14T15:08:26.579Z,97139.75
2022-08-14T15:13:53.259Z,97135.56
2022-08-14T15:18:54.900Z,97129.75
2022-08-14T15:23:56.254Z,97142.41
2022-08-14T15:29:03.009Z,97129.81
2022-08-14T15:34:43.135Z,97128.50
2022-08-14T15:39:38.126Z,97132.84
2022-08-14T15:44:44.680Z,97118.44
2022-08-14T15:50:00.322Z,97115.22
2022-08-14T15:55:04.308Z,97119.41
2022-08-14T16:00:40.373Z,97115.22
2022-08-14T16:05:45.798Z,97109.22
2022-08-14T16:10:47.705Z,97119.41
2022-08-14T16:15:53.174Z,97108.91
2022-08-14T16:20:58.958Z,97111.97
2022-08-14T16:26:01.891Z,97111.66
2022-08-14T16:31:05.629Z,97111.34
2022-08-14T16:36:30.000Z,97101.63
2022-08-14T16:41:32.669Z,97094.34
2022-08-14T16:46:42.996Z,97092.44
2022-08-14T16:51:46.364Z,97080.75
2022-08-14T16:56:54.249Z,97077.16
2022-08-14T17:02:00.719Z,97069.53
2022-08-14T17:07:10.674Z,97075.94
2022-08-14T17:12:28.334Z,97065.91
2022-08-14T17:17:36.240Z,97062.91
2022-08-14T17:22:48.190Z,97062.41
2022-08-14T17:33:44.079Z,97059.09
2022-08-14T17:38:59.587Z,97052.34
2022-08-14T17:44:13.829Z,97046.66
2022-08-14T17:49:23.726Z,97046.19
2022-08-14T17:54:34.910Z,97038.56
2022-08-14T17:59:39.332Z,97045.31
2022-08-14T18:04:44.093Z,97048.25
2022-08-14T18:09:57.010Z,97041.84
2022-08-14T18:15:06.623Z,97042.34
2022-08-14T18:21:41.113Z,97040.59
2022-08-14T18:25:48.215Z,97040.44
2022-08-14T18:30:58.553Z,97042.09
2022-08-14T18:36:48.731Z,97041.31
2022-08-14T18:41:36.323Z,97051.16
2022-08-14T18:47:01.003Z,97053.09
2022-08-14T18:52:12.806Z,97053.06
2022-08-14T18:57:20.823Z,97057.75
2022-08-14T19:02:30.713Z,97061.56
2022-08-14T19:07:34.171Z,97053.06
2022-08-14T19:12:56.504Z,97057.03
2022-08-14T19:18:05.002Z,97058.63
2022-08-14T19:23:18.192Z,97056.34
2022-08-14T19:28:27.271Z,97054.13
2022-08-14T19:33:46.851Z,97053.44
2022-08-14T19:38:51.975Z,97065.63
2022-08-14T19:43:56.885Z,97055.75
2022-08-14T19:48:59.365Z,97059.19
2022-08-14T19:54:13.517Z,97057.94
2022-08-14T19:59:19.109Z,97059.72
2022-08-14T20:04:45.713Z,97062.00
2022-08-14T20:11:03.748Z,97053.88
2022-08-14T20:15:15.589Z,97051.19
2022-08-14T20:20:21.052Z,97052.09
2022-08-14T20:25:37.352Z,97066.06
2022-08-14T20:30:48.717Z,97062.34
2022-08-14T20:35:52.041Z,97066.28
2022-08-14T20:40:59.484Z,97060.41
2022-08-14T20:46:11.325Z,97060.00
2022-08-14T20:51:20.364Z,97044.66
2022-08-14T20:56:28.550Z,97047.44
2022-08-14T21:01:33.615Z,97052.41
2022-08-14T21:07:23.337Z,97051.13
2022-08-14T21:12:04.529Z,97047.63
2022-08-14T21:17:06.009Z,97046.03
2022-08-14T21:22:09.785Z,97046.88
2022-08-14T21:27:21.909Z,97030.88
2022-08-14T21:32:50.237Z,97027.38
2022-08-14T21:37:58.431Z,97021.19
2022-08-14T21:43:01.464Z,97023.06
2022-08-14T21:48:11.161Z,97013.28
2022-08-14T21:53:14.302Z,97010.56
2022-08-14T21:58:51.851Z,97015.47
2022-08-14T22:03:44.967Z,97006.25
2022-08-14T22:08:52.807Z,97002.19
2022-08-14T22:13:56.055Z,96994.31
2022-08-14T22:18:57.413Z,96991.06
2022-08-14T22:23:58.797Z,96989.44
2022-08-14T22:29:01.710Z,96989.44
2022-08-14T22:34:03.965Z,96990.00
2022-08-14T22:39:05.918Z,96983.00
2022-08-14T22:44:17.831Z,96988.44
2022-08-14T22:50:29.253Z,96996.66
2022-08-14T22:54:51.317Z,96991.81
2022-08-14T22:59:54.743Z,96997.34
2022-08-14T23:04:56.286Z,96983.56
2022-08-14T23:10:33.099Z,96971.97
2022-08-14T23:15:21.360Z,96973.88
2022-08-14T23:20:29.428Z,96964.13
2022-08-14T23:25:58.531Z,96961.16
2022-08-14T23:30:54.270Z,96958.44
2022-08-14T23:35:58.983Z,96948.13
2022-08-14T23:41:02.484Z,96950.31
2022-08-14T23:46:12.649Z,96950.06
2022-08-14T23:51:15.737Z,96936.50
2022-08-14T23:56:30.329Z,96933.25
